TimeMDT,TemperatureF,Dew PointF,Humidity,Sea Level PressureIn,VisibilityMPH,Wind Direction,Wind SpeedMPH,Gust SpeedMPH,PrecipitationIn,Events,Conditions,WindDirDegrees,DateUTC
12:53 AM,69.1,52.0,54,29.90,9.0,ENE,5.8,-,N/A,,Clear,70,2013-06-16 06:53:00
1:53 AM,68.0,53.1,59,29.88,10.0,East,11.5,-,N/A,,Clear,80,2013-06-16 07:53:00
2:53 AM,66.0,53.1,63,29.89,10.0,SSE,6.9,-,N/A,,Clear,160,2013-06-16 08:53:00
3:53 AM,64.9,53.1,65,29.91,10.0,SSE,17.3,23.0,N/A,,Clear,150,2013-06-16 09:53:00
4:53 AM,64.0,53.1,67,29.91,10.0,ESE,12.7,-,N/A,,Clear,120,2013-06-16 10:53:00
5:53 AM,64.0,54.0,70,29.93,10.0,SE,5.8,-,N/A,,Clear,130,2013-06-16 11:53:00
6:53 AM,66.0,53.1,63,29.94,10.0,SW,6.9,-,N/A,,Clear,220,2013-06-16 12:53:00
7:53 AM,70.0,55.0,59,29.95,10.0,WSW,13.8,-,N/A,,Clear,240,2013-06-16 13:53:00
8:53 AM,75.0,55.0,50,29.95,10.0,SW,10.4,-,N/A,,Clear,220,2013-06-16 14:53:00
9:53 AM,81.0,54.0,39,29.90,10.0,SW,20.7,26.5,N/A,,Clear,230,2013-06-16 15:53:00
10:53 AM,86.0,54.0,33,29.88,10.0,SW,17.3,27.6,N/A,,Clear,230,2013-06-16 16:53:00
11:53 AM,89.1,53.1,29,29.86,10.0,SW,15.0,18.4,N/A,,Clear,230,2013-06-16 17:53:00
12:53 PM,91.0,48.9,23,29.83,10.0,SSE,11.5,17.3,N/A,,Clear,160,2013-06-16 18:53:00
1:53 PM,93.9,46.0,19,29.80,10.0,SW,12.7,-,N/A,,Scattered Clouds,220,2013-06-16 19:53:00
2:53 PM,95.0,46.0,19,29.78,10.0,SSE,17.3,23.0,N/A,,Clear,150,2013-06-16 20:53:00
3:53 PM,93.9,48.0,21,29.76,10.0,South,17.3,25.3,N/A,,Clear,170,2013-06-16 21:53:00
4:53 PM,91.0,48.9,23,29.73,10.0,South,15.0,-,N/A,,Clear,170,2013-06-16 22:53:00
5:28 PM,87.8,51.8,29,29.92,10.0,South,19.6,26.5,N/A,Thunderstorm,Clear,180,2013-06-16 23:28:00
5:45 PM,78.8,48.2,34,30.08,5.0,WNW,33.4,46.0,N/A,Thunderstorm,Unknown,290,2013-06-16 23:45:00
5:53 PM,62.1,55.0,78,30.04,4.0,West,32.2,48.3,0.01,Rain-Thunderstorm,Light Thunderstorms and Rain,260,2013-06-16 23:53:00
6:00 PM,60.8,55.4,82,30.12,3.0,West,19.6,46.0,0.09,Rain-Thunderstorm,Heavy Thunderstorms and Rain,270,2013-06-17 00:00:00
6:09 PM,60.8,55.4,82,30.10,2.5,WSW,11.5,-,0.18,Rain-Thunderstorm,Heavy Thunderstorms and Rain,240,2013-06-17 00:09:00
6:17 PM,62.6,55.4,77,30.09,4.0,SSW,5.8,-,0.20,Rain-Thunderstorm,Thunderstorms and Rain,210,2013-06-17 00:17:00
6:45 PM,64.4,57.2,77,30.07,8.0,South,17.3,-,0.23,Rain,Light Rain,190,2013-06-17 00:45:00
6:53 PM,66.9,57.0,70,29.94,10.0,South,24.2,-,0.23,Rain,Light Rain,180,2013-06-17 00:53:00
7:53 PM,68.0,55.9,65,29.84,10.0,SSE,11.5,-,0.01,,Clear,160,2013-06-17 01:53:00
8:53 PM,64.9,57.9,78,29.86,10.0,NNW,6.9,-,N/A,,Clear,330,2013-06-17 02:53:00
9:53 PM,64.0,57.9,80,29.94,10.0,ENE,8.1,-,N/A,,Clear,60,2013-06-17 03:53:00
10:53 PM,64.0,59.0,84,29.92,10.0,East,4.6,-,N/A,,Clear,100,2013-06-17 04:53:00
11:53 PM,63.0,59.0,87,29.91,10.0,South,6.9,-,N/A,,Clear,180,2013-06-17 05:53:00